createdAt,value
2018-09-26T00:01:08.022Z,102543.91
2018-09-26T00:03:41.130Z,102546.03
2018-09-26T00:06:09.730Z,102541.80
2018-09-26T00:08:38.198Z,102538.28
2018-09-26T00:11:06.917Z,102525.66
2018-09-26T00:13:36.257Z,102522.14
2018-09-26T00:16:04.714Z,102520.81
2018-09-26T00:18:33.255Z,102526.95
2018-09-26T00:21:02.855Z,102525.79
2018-09-26T00:23:31.761Z,102529.55
2018-09-26T00:26:00.202Z,102527.48
2018-09-26T00:28:28.686Z,102527.06
2018-09-26T00:30:57.281Z,102521.00
2018-09-26T00:33:25.781Z,102514.37
2018-09-26T00:35:54.481Z,102518.03
2018-09-26T00:38:23.550Z,102515.18
2018-09-26T00:40:53.046Z,102513.85
2018-09-26T00:43:21.475Z,102512.88
2018-09-26T00:45:49.935Z,102505.61
2018-09-26T00:48:18.425Z,102495.64
2018-09-26T00:50:46.954Z,102493.09
2018-09-26T00:53:15.454Z,102498.00
2018-09-26T00:55:44.401Z,102496.17
2018-09-26T00:58:12.802Z,102500.72
2018-09-26T01:00:41.230Z,102495.16
2018-09-26T01:03:10.358Z,102493.38
2018-09-26T01:05:39.829Z,102493.02
2018-09-26T01:08:08.324Z,102483.75
2018-09-26T01:10:36.723Z,102479.07
2018-09-26T01:13:05.167Z,102475.19
2018-09-26T01:15:33.877Z,102462.05
2018-09-26T01:18:02.316Z,102456.52
2018-09-26T01:20:31.214Z,102458.51
2018-09-26T01:22:59.817Z,102461.00
2018-09-26T01:25:28.302Z,102459.78
2018-09-26T01:27:57.183Z,102451.73
2018-09-26T01:30:25.881Z,102461.97
2018-09-26T01:32:54.333Z,102462.94
2018-09-26T01:35:22.844Z,102455.16
2018-09-26T01:37:51.299Z,102450.14
2018-09-26T01:40:19.770Z,102443.34
2018-09-26T01:42:48.485Z,102434.94
2018-09-26T01:45:17.618Z,102422.26
2018-09-26T01:47:46.670Z,102424.44
2018-09-26T01:50:15.252Z,102423.11
2018-09-26T01:52:43.829Z,102421.47
2018-09-26T01:55:12.299Z,102429.11
2018-09-26T01:57:40.789Z,102436.39
2018-09-26T02:00:10.316Z,102437.23
2018-09-26T02:02:38.893Z,102433.46
2018-09-26T02:05:07.745Z,102422.85
2018-09-26T02:07:36.389Z,102417.34
2018-09-26T02:10:05.490Z,102416.54
2018-09-26T02:12:33.958Z,102418.98
2018-09-26T02:15:02.701Z,102426.67
2018-09-26T02:17:31.486Z,102427.95
2018-09-26T02:20:00.612Z,102426.67
2018-09-26T02:22:29.113Z,102429.22
2018-09-26T02:24:57.737Z,102421.58
2018-09-26T02:27:26.700Z,102427.59
2018-09-26T02:29:55.402Z,102429.77
2018-09-26T02:32:23.853Z,102423.77
2018-09-26T02:34:52.313Z,102427.17
2018-09-26T02:37:21.113Z,102428.75
2018-09-26T02:39:49.523Z,102423.11
2018-09-26T02:42:18.148Z,102408.30
2018-09-26T02:44:46.858Z,102412.17
2018-09-26T02:47:15.297Z,102406.34
2018-09-26T02:49:45.129Z,102408.80
2018-09-26T02:52:13.854Z,102415.16
2018-09-26T02:54:42.400Z,102424.56
2018-09-26T02:57:11.392Z,102427.59
2018-09-26T02:59:39.768Z,102426.25
2018-09-26T03:02:08.276Z,102423.11
2018-09-26T03:04:36.766Z,102415.94
2018-09-26T03:07:05.240Z,102413.95
2018-09-26T03:09:33.683Z,102414.41
2018-09-26T03:12:02.142Z,102419.45
2018-09-26T03:14:31.229Z,102412.67
2018-09-26T03:16:59.738Z,102407.94
2018-09-26T03:19:28.202Z,102407.16
2018-09-26T03:21:57.541Z,102410.55
2018-09-26T03:24:26.060Z,102408.41
2018-09-26T03:26:54.422Z,102404.84
2018-09-26T03:29:22.867Z,102398.48
2018-09-26T03:31:51.303Z,102398.84
2018-09-26T03:34:19.765Z,102396.22
2018-09-26T03:36:48.238Z,102389.80
2018-09-26T03:39:16.773Z,102398.36
2018-09-26T03:41:45.232Z,102391.94
2018-09-26T03:44:13.695Z,102382.58
2018-09-26T03:46:42.104Z,102380.84
2018-09-26T03:49:10.514Z,102385.08
2018-09-26T03:51:39.661Z,102378.58
2018-09-26T03:54:08.274Z,102380.14
2018-09-26T03:56:37.975Z,102376.45
2018-09-26T03:59:06.794Z,102383.73
2018-09-26T04:01:35.219Z,102381.07
2018-09-26T04:04:03.709Z,102378.03
2018-09-26T04:06:32.194Z,102374.58
2018-09-26T04:09:00.733Z,102373.31
2018-09-26T04:11:29.583Z,102364.40
2018-09-26T04:13:58.351Z,102367.72
2018-09-26T04:16:26.952Z,102368.09
2018-09-26T04:18:55.415Z,102365.13
2018-09-26T04:21:23.958Z,102354.45
2018-09-26T04:23:52.433Z,102352.69
2018-09-26T04:26:20.953Z,102337.96
2018-09-26T04:28:49.338Z,102336.20
2018-09-26T04:31:17.799Z,102338.69
2018-09-26T04:33:46.272Z,102339.13
2018-09-26T04:36:14.851Z,102332.33
2018-09-26T04:38:43.680Z,102326.77
2018-09-26T04:41:12.523Z,102328.40
2018-09-26T04:43:41.079Z,102332.33
2018-09-26T04:46:09.541Z,102321.67
2018-09-26T04:48:38.169Z,102322.51
2018-09-26T04:51:06.667Z,102325.47
2018-09-26T04:53:35.300Z,102322.40
2018-09-26T04:56:03.838Z,102326.98
2018-09-26T04:58:32.268Z,102329.65
2018-09-26T05:01:00.866Z,102330.02
2018-09-26T05:03:29.549Z,102339.30
2018-09-26T05:05:58.097Z,102341.83
2018-09-26T05:08:26.724Z,102341.28
2018-09-26T05:10:55.219Z,102336.44
2018-09-26T05:13:23.805Z,102333.38
2018-09-26T05:15:52.249Z,102322.59
2018-09-26T05:18:20.671Z,102311.16
2018-09-26T05:20:49.142Z,102315.17
2018-09-26T05:23:17.615Z,102320.32
2018-09-26T05:25:47.023Z,102321.59
2018-09-26T05:28:15.497Z,102325.91
2018-09-26T05:30:44.058Z,102322.61
2018-09-26T05:33:12.557Z,102327.85
2018-09-26T05:35:41.033Z,102325.36
2018-09-26T05:38:09.665Z,102316.41
2018-09-26T05:40:38.910Z,102310.14
2018-09-26T05:43:07.788Z,102309.42
2018-09-26T05:45:36.368Z,102307.36
2018-09-26T05:48:04.906Z,102310.51
2018-09-26T05:50:33.319Z,102308.58
2018-09-26T05:53:01.755Z,102307.11
2018-09-26T05:55:30.234Z,102307.28
2018-09-26T05:57:59.227Z,102303.77
2018-09-26T06:00:28.353Z,102306.17
2018-09-26T06:02:56.860Z,102306.03
2018-09-26T06:05:25.381Z,102308.48
2018-09-26T06:07:53.955Z,102301.97
2018-09-26T06:10:22.439Z,102294.48
2018-09-26T06:12:50.972Z,102300.36
2018-09-26T06:15:19.361Z,102297.17
2018-09-26T06:17:47.791Z,102294.11
2018-09-26T06:20:16.306Z,102285.01
2018-09-26T06:22:44.779Z,102277.97
2018-09-26T06:25:13.253Z,102281.55
2018-09-26T06:27:41.596Z,102278.29
2018-09-26T06:30:10.280Z,102266.94
2018-09-26T06:32:39.101Z,102269.16
2018-09-26T06:35:08.078Z,102268.86
2018-09-26T06:37:36.607Z,102267.89
2018-09-26T06:40:05.228Z,102261.76
2018-09-26T06:42:33.683Z,102266.14
2018-09-26T06:45:02.133Z,102258.21
2018-09-26T06:47:30.998Z,102254.07
2018-09-26T06:49:59.390Z,102259.84
2018-09-26T06:52:27.841Z,102264.68
2018-09-26T06:54:56.281Z,102251.20
2018-09-26T06:57:24.726Z,102256.53
2018-09-26T06:59:53.268Z,102254.70
2018-09-26T07:02:21.770Z,102256.22
2018-09-26T07:04:50.181Z,102253.91
2018-09-26T07:07:18.654Z,102254.55
2018-09-26T07:09:47.154Z,102258.60
2018-09-26T07:12:15.784Z,102248.11
2018-09-26T07:14:44.153Z,102256.34
2018-09-26T07:17:12.878Z,102247.89
2018-09-26T07:19:41.384Z,102253.14
2018-09-26T07:22:10.064Z,102248.52
2018-09-26T07:24:38.571Z,102254.58
2018-09-26T07:27:06.992Z,102248.27
2018-09-26T07:29:35.415Z,102251.74
2018-09-26T07:32:03.902Z,102250.55
2018-09-26T07:34:39.536Z,102254.52
2018-09-26T07:37:08.609Z,102258.50
2018-09-26T07:39:38.064Z,102258.23
2018-09-26T07:42:06.755Z,102257.52
2018-09-26T07:44:35.289Z,102254.72
2018-09-26T07:47:03.718Z,102263.00
2018-09-26T07:49:32.150Z,102264.33
2018-09-26T07:52:00.614Z,102256.17
2018-09-26T07:54:29.092Z,102255.30
2018-09-26T07:56:57.537Z,102251.45
2018-09-26T07:59:25.967Z,102246.32
2018-09-26T08:01:54.509Z,102248.48
2018-09-26T08:04:23.022Z,102254.84
2018-09-26T08:06:51.603Z,102252.73
2018-09-26T08:09:20.927Z,102253.16
2018-09-26T08:11:49.455Z,102244.62
2018-09-26T08:14:17.814Z,102239.06
2018-09-26T08:16:46.290Z,102229.28
2018-09-26T08:19:14.771Z,102231.02
2018-09-26T08:21:43.218Z,102238.72
2018-09-26T08:24:11.697Z,102236.56
2018-09-26T08:29:19.553Z,102230.64
2018-09-26T08:31:48.171Z,102234.92
2018-09-26T08:34:16.597Z,102238.36
2018-09-26T08:36:45.222Z,102243.95
2018-09-26T08:39:14.703Z,102244.38
2018-09-26T08:41:43.151Z,102246.08
2018-09-26T08:44:12.022Z,102261.50
2018-09-26T08:46:40.728Z,102264.09
2018-09-26T08:49:09.296Z,102266.27
2018-09-26T08:51:37.947Z,102261.52
2018-09-26T08:54:06.418Z,102262.41
2018-09-26T08:56:34.970Z,102252.53
2018-09-26T08:59:03.509Z,102253.85
2018-09-26T09:01:48.761Z,102254.28
2018-09-26T09:04:18.474Z,102243.59
2018-09-26T09:06:47.245Z,102251.77
2018-09-26T09:09:16.235Z,102259.10
2018-09-26T09:11:44.706Z,102256.13
2018-09-26T09:14:13.123Z,102250.11
2018-09-26T09:16:41.541Z,102248.77
2018-09-26T09:19:10.058Z,102254.34
2018-09-26T09:21:39.250Z,102250.45
2018-09-26T09:24:08.425Z,102253.41
2018-09-26T09:26:36.933Z,102246.17
2018-09-26T09:29:05.687Z,102247.08
2018-09-26T09:31:34.146Z,102246.22
2018-09-26T09:34:02.627Z,102243.23
2018-09-26T09:36:31.180Z,102241.52
2018-09-26T09:38:59.581Z,102236.33
2018-09-26T09:41:28.090Z,102242.31
2018-09-26T09:43:56.622Z,102232.34
2018-09-26T09:46:25.043Z,102237.02
2018-09-26T09:48:53.484Z,102240.02
2018-09-26T09:51:21.991Z,102225.03
2018-09-26T09:53:50.547Z,102221.61
2018-09-26T09:56:19.020Z,102224.05
2018-09-26T09:58:47.419Z,102216.34
2018-09-26T10:01:21.112Z,102212.91
2018-09-26T10:03:49.659Z,102209.52
2018-09-26T10:06:18.439Z,102205.16
2018-09-26T10:08:47.273Z,102209.49
2018-09-26T10:11:15.658Z,102212.56
2018-09-26T10:13:44.610Z,102210.75
2018-09-26T10:16:13.187Z,102209.02
2018-09-26T10:18:41.725Z,102210.72
2018-09-26T10:21:10.217Z,102195.63
2018-09-26T10:23:38.677Z,102193.05
2018-09-26T10:26:07.861Z,102188.25
2018-09-26T10:28:36.387Z,102190.75
2018-09-26T10:31:04.847Z,102186.40
2018-09-26T10:33:33.394Z,102181.69
2018-09-26T10:36:01.813Z,102186.48
2018-09-26T10:38:30.213Z,102180.03
2018-09-26T10:40:58.696Z,102170.53
2018-09-26T10:43:27.154Z,102167.50
2018-09-26T10:45:55.753Z,102169.27
2018-09-26T10:48:24.240Z,102176.53
2018-09-26T10:50:52.798Z,102174.88
2018-09-26T10:53:21.279Z,102152.16
2018-09-26T10:55:50.411Z,102154.64
2018-09-26T10:58:19.789Z,102163.19
2018-09-26T11:00:48.307Z,102151.62
2018-09-26T11:03:17.050Z,102159.27
2018-09-26T11:05:46.071Z,102149.00
2018-09-26T11:08:14.580Z,102143.84
2018-09-26T11:10:42.947Z,102142.59
2018-09-26T11:13:11.305Z,102144.77
2018-09-26T11:15:39.914Z,102130.55
2018-09-26T11:18:08.304Z,102135.03
2018-09-26T11:20:36.774Z,102128.14
2018-09-26T11:23:05.315Z,102120.76
2018-09-26T11:25:33.791Z,102112.89
2018-09-26T11:28:02.231Z,102124.89
2018-09-26T11:30:30.770Z,102123.20
2018-09-26T11:32:59.236Z,102110.84
2018-09-26T11:35:28.077Z,102109.46
2018-09-26T11:37:56.578Z,102111.55
2018-09-26T11:40:25.075Z,102113.52
2018-09-26T11:42:53.527Z,102108.63
2018-09-26T11:45:22.375Z,102103.53
2018-09-26T11:47:50.807Z,102106.52
2018-09-26T11:50:19.356Z,102095.72
2018-09-26T11:52:47.881Z,102091.77
2018-09-26T11:55:16.364Z,102081.25
2018-09-26T11:57:46.385Z,102084.59
2018-09-26T12:00:14.848Z,102073.06
2018-09-26T12:02:43.444Z,102077.78
2018-09-26T12:05:11.922Z,102075.05
2018-09-26T12:07:40.410Z,102068.44
2018-09-26T12:10:09.023Z,102063.73
2018-09-26T12:12:37.717Z,102060.70
2018-09-26T12:15:06.225Z,102061.82
2018-09-26T12:17:34.645Z,102052.34
2018-09-26T12:20:03.124Z,102058.41
2018-09-26T12:22:31.710Z,102052.27
2018-09-26T12:25:00.242Z,102046.32
2018-09-26T12:27:28.710Z,102043.75
2018-09-26T12:29:57.127Z,102041.61
2018-09-26T12:32:25.638Z,102034.69
2018-09-26T12:34:54.420Z,102037.48
2018-09-26T12:37:22.964Z,102030.13
2018-09-26T12:39:51.452Z,102035.84
2018-09-26T12:42:20.076Z,102019.81
2018-09-26T12:44:48.513Z,102010.52
2018-09-26T12:47:17.043Z,102006.06
2018-09-26T12:49:45.489Z,102004.45
2018-09-26T12:52:14.130Z,102002.69
2018-09-26T12:54:42.617Z,101997.34
2018-09-26T12:57:11.305Z,101999.78
2018-09-26T12:59:39.759Z,101991.49
2018-09-26T13:02:08.319Z,101987.61
2018-09-26T13:04:36.915Z,101984.17
2018-09-26T13:07:05.465Z,101977.33
2018-09-26T13:09:33.925Z,101984.25
2018-09-26T13:12:02.509Z,101978.34
2018-09-26T13:14:30.949Z,101979.41
2018-09-26T13:16:59.448Z,101969.39
2018-09-26T13:19:27.926Z,101971.76
2018-09-26T13:21:56.365Z,101961.83
2018-09-26T13:24:24.935Z,101953.02
2018-09-26T13:26:53.433Z,101943.81
2018-09-26T13:29:22.609Z,101954.52
2018-09-26T13:31:51.489Z,101950.91
2018-09-26T13:34:20.504Z,101948.25
2018-09-26T13:36:48.903Z,101943.43
2018-09-26T13:39:17.321Z,101945.55
2018-09-26T13:41:46.053Z,101934.38
2018-09-26T13:44:14.600Z,101940.11
2018-09-26T13:46:43.039Z,101942.43
2018-09-26T13:49:11.497Z,101934.11
2018-09-26T13:51:39.943Z,101931.50
2018-09-26T13:54:08.449Z,101929.11
2018-09-26T13:56:36.914Z,101924.13
2018-09-26T13:59:05.398Z,101924.16
2018-09-26T14:01:34.630Z,101912.50
2018-09-26T14:04:03.265Z,101908.41
2018-09-26T14:06:32.757Z,101908.83
2018-09-26T14:09:01.295Z,101901.94
2018-09-26T14:11:29.880Z,101901.59
2018-09-26T14:13:58.483Z,101906.23
2018-09-26T14:16:27.057Z,101905.33
2018-09-26T14:18:55.581Z,101899.23
2018-09-26T14:21:24.440Z,101902.37
2018-09-26T14:23:53.090Z,101886.31
2018-09-26T14:26:21.791Z,101900.52
2018-09-26T14:28:50.848Z,101885.98
2018-09-26T14:31:20.069Z,101884.69
2018-09-26T14:33:48.631Z,101884.27
2018-09-26T14:36:17.319Z,101873.49
2018-09-26T14:38:45.770Z,101876.08
2018-09-26T14:41:14.388Z,101867.14
2018-09-26T14:43:42.805Z,101876.10
2018-09-26T14:46:11.328Z,101867.54
2018-09-26T14:48:40.583Z,101867.66
2018-09-26T14:51:09.487Z,101871.53
2018-09-26T14:53:38.163Z,101864.30
2018-09-26T14:56:06.850Z,101862.45
2018-09-26T14:58:35.973Z,101853.75
2018-09-26T15:01:04.650Z,101851.55
2018-09-26T15:03:33.468Z,101848.78
2018-09-26T15:06:01.886Z,101853.23
2018-09-26T15:08:30.586Z,101845.00
2018-09-26T15:10:58.950Z,101839.01
2018-09-26T15:13:27.401Z,101844.55
2018-09-26T15:15:55.914Z,101844.61
2018-09-26T15:18:24.572Z,101842.50
2018-09-26T15:21:00.117Z,101845.05
2018-09-26T15:23:28.716Z,101836.98
2018-09-26T15:25:57.853Z,101835.67
2018-09-26T15:28:26.367Z,101830.98
2018-09-26T15:30:54.771Z,101826.13
2018-09-26T15:33:23.590Z,101825.59
2018-09-26T15:35:52.171Z,101829.86
2018-09-26T15:38:20.692Z,101827.60
2018-09-26T15:40:49.223Z,101825.36
2018-09-26T15:43:18.403Z,101836.06
2018-09-26T15:45:47.330Z,101831.65
2018-09-26T15:48:15.842Z,101830.33
2018-09-26T15:50:44.470Z,101819.30
2018-09-26T15:53:13.724Z,101819.84
2018-09-26T15:55:42.238Z,101819.38
2018-09-26T15:58:10.764Z,101812.20
2018-09-26T16:00:39.672Z,101813.89
2018-09-26T16:03:08.268Z,101808.54
2018-09-26T16:05:37.090Z,101815.47
2018-09-26T16:08:05.604Z,101812.50
2018-09-26T16:10:33.981Z,101814.19
2018-09-26T16:13:02.451Z,101806.63
2018-09-26T16:15:32.418Z,101804.13
2018-09-26T16:18:00.941Z,101801.09
2018-09-26T16:20:29.389Z,101802.86
2018-09-26T16:22:57.747Z,101816.27
2018-09-26T16:25:26.245Z,101807.39
2018-09-26T16:27:54.578Z,101808.69
2018-09-26T16:30:23.109Z,101811.77
2018-09-26T16:32:52.618Z,101819.17
2018-09-26T16:35:23.506Z,101817.86
2018-09-26T16:37:53.715Z,101818.78
2018-09-26T16:40:22.479Z,101818.84
2018-09-26T16:42:51.601Z,101815.44
2018-09-26T16:45:20.668Z,101814.26
2018-09-26T16:47:49.788Z,101813.72
2018-09-26T16:50:20.000Z,101821.16
2018-09-26T16:52:49.331Z,101816.05
2018-09-26T16:55:20.311Z,101816.87
2018-09-26T16:57:52.357Z,101815.64
2018-09-26T17:00:21.161Z,101815.67
2018-09-26T17:02:53.313Z,101805.43
2018-09-26T17:05:21.912Z,101806.32
2018-09-26T17:07:50.860Z,101806.83
2018-09-26T17:10:20.874Z,101814.20
2018-09-26T17:12:50.069Z,101815.70
2018-09-26T17:15:19.938Z,101829.10
2018-09-26T17:17:49.650Z,101830.42
2018-09-26T17:20:18.252Z,101825.33
2018-09-26T17:22:47.037Z,101826.17
2018-09-26T17:25:15.626Z,101824.50
2018-09-26T17:27:44.115Z,101825.33
2018-09-26T17:30:12.633Z,101822.84
2018-09-26T17:32:41.221Z,101828.00
2018-09-26T17:35:09.681Z,101834.91
2018-09-26T17:37:38.319Z,101837.95
2018-09-26T17:40:08.765Z,101836.27
2018-09-26T17:42:37.720Z,101839.32
2018-09-26T17:45:07.389Z,101837.19
2018-09-26T17:47:37.219Z,101837.66
2018-09-26T17:50:05.630Z,101840.33
2018-09-26T17:52:34.369Z,101830.95
2018-09-26T17:55:02.999Z,101835.30
2018-09-26T17:57:32.052Z,101837.95
2018-09-26T18:00:01.224Z,101844.84
2018-09-26T18:02:29.998Z,101843.17
2018-09-26T18:04:58.828Z,101846.98
2018-09-26T18:07:27.753Z,101846.59
2018-09-26T18:09:56.923Z,101843.97
2018-09-26T18:12:27.553Z,101838.02
2018-09-26T18:14:56.478Z,101839.70
2018-09-26T18:17:25.952Z,101844.09
2018-09-26T18:19:54.561Z,101844.48
2018-09-26T18:22:23.537Z,101845.78
2018-09-26T18:24:52.617Z,101846.67
2018-09-26T18:27:21.674Z,101848.44
2018-09-26T18:29:51.233Z,101845.86
2018-09-26T18:32:19.957Z,101855.32
2018-09-26T18:34:48.628Z,101863.50
2018-09-26T18:37:17.564Z,101857.47
2018-09-26T18:39:46.962Z,101858.36
2018-09-26T18:42:15.500Z,101864.80
2018-09-26T18:44:45.120Z,101857.55
2018-09-26T18:47:14.950Z,101857.59
2018-09-26T18:49:44.635Z,101856.36
2018-09-26T18:52:13.208Z,101851.67
2018-09-26T18:54:42.582Z,101845.23
2018-09-26T18:57:11.490Z,101846.14
2018-09-26T18:59:39.939Z,101856.45
2018-09-26T19:02:08.874Z,101856.50
2018-09-26T19:04:38.023Z,101852.19
2018-09-26T19:07:07.419Z,101858.20
2018-09-26T19:09:36.156Z,101857.78
2018-09-26T19:12:05.817Z,101854.83
2018-09-26T19:14:34.606Z,101850.52
2018-09-26T19:17:03.633Z,101849.63
2018-09-26T19:19:32.854Z,101851.38
2018-09-26T19:22:02.758Z,101850.50
2018-09-26T19:24:31.765Z,101860.37
2018-09-26T19:27:00.623Z,101859.48
2018-09-26T19:29:29.902Z,101861.67
2018-09-26T19:31:58.948Z,101870.25
2018-09-26T19:34:27.933Z,101867.67
2018-09-26T19:36:57.205Z,101868.96
2018-09-26T19:39:26.638Z,101870.69
2018-09-26T19:41:55.347Z,101866.37
2018-09-26T19:44:25.144Z,101863.75
2018-09-26T19:46:54.995Z,101863.73
2018-09-26T19:49:25.169Z,101867.16
2018-09-26T19:51:54.391Z,101864.19
2018-09-26T19:54:23.609Z,101862.45
2018-09-26T19:56:52.882Z,101868.04
2018-09-26T19:59:21.675Z,101876.17
2018-09-26T20:01:50.993Z,101869.27
2018-09-26T20:04:20.488Z,101867.97
2018-09-26T20:06:49.651Z,101865.73
2018-09-26T20:09:18.190Z,101865.66
2018-09-26T20:11:46.824Z,101859.67
2018-09-26T20:14:15.359Z,101861.84
2018-09-26T20:16:44.085Z,101862.25
2018-09-26T20:19:12.758Z,101863.07
2018-09-26T20:21:41.385Z,101850.56
2018-09-26T20:24:10.128Z,101843.27
2018-09-26T20:26:38.797Z,101842.38
2018-09-26T20:29:07.711Z,101848.41
2018-09-26T20:31:36.650Z,101856.16
2018-09-26T20:34:05.541Z,101858.30
2018-09-26T20:36:34.625Z,101851.45
2018-09-26T20:39:03.449Z,101856.16
2018-09-26T20:41:32.110Z,101847.52
2018-09-26T20:44:00.648Z,101848.41
2018-09-26T20:46:29.373Z,101848.41
2018-09-26T20:48:58.090Z,101845.41
2018-09-26T20:51:26.846Z,101845.38
2018-09-26T20:53:55.545Z,101844.55
2018-09-26T20:56:24.319Z,101843.66
2018-09-26T20:58:52.825Z,101847.58
2018-09-26T21:01:21.514Z,101847.15
2018-09-26T21:03:50.179Z,101851.89
2018-09-26T21:06:18.874Z,101856.16
2018-09-26T21:08:47.343Z,101852.70
2018-09-26T21:11:15.967Z,101862.60
2018-09-26T21:13:44.549Z,101866.08
2018-09-26T21:16:13.245Z,101864.83
2018-09-26T21:18:42.346Z,101863.16
2018-09-26T21:21:11.105Z,101860.16
2018-09-26T21:23:39.667Z,101860.69
2018-09-26T21:26:08.200Z,101855.91
2018-09-26T21:28:37.501Z,101854.61
2018-09-26T21:31:06.204Z,101855.01
2018-09-26T21:33:34.786Z,101850.27
2018-09-26T21:36:03.815Z,101850.27
2018-09-26T21:38:32.458Z,101843.87
2018-09-26T21:41:01.047Z,101845.16
2018-09-26T21:43:29.669Z,101843.01
2018-09-26T21:45:58.201Z,101852.91
2018-09-26T21:48:26.903Z,101854.19
2018-09-26T21:50:55.518Z,101851.22
2018-09-26T21:53:24.061Z,101855.53
2018-09-26T21:55:52.545Z,101866.69
2018-09-26T21:58:21.098Z,101862.38
2018-09-26T22:00:54.887Z,101858.56
2018-09-26T22:03:23.418Z,101856.01
2018-09-26T22:05:51.973Z,101867.16
2018-09-26T22:08:20.774Z,101861.61
2018-09-26T22:10:49.415Z,101862.52
2018-09-26T22:13:18.019Z,101861.66
2018-09-26T22:15:46.565Z,101864.69
2018-09-26T22:18:15.173Z,101872.81
2018-09-26T22:20:43.970Z,101874.55
2018-09-26T22:23:12.578Z,101868.56
2018-09-26T22:25:41.271Z,101865.99
2018-09-26T22:28:09.962Z,101868.63
2018-09-26T22:30:38.797Z,101868.58
2018-09-26T22:33:07.458Z,101865.60
2018-09-26T22:35:36.280Z,101860.45
2018-09-26T22:38:04.944Z,101857.86
2018-09-26T22:40:33.555Z,101851.88
2018-09-26T22:43:02.099Z,101845.48
2018-09-26T22:45:31.338Z,101849.34
2018-09-26T22:47:59.962Z,101849.80
2018-09-26T22:50:28.733Z,101848.97
2018-09-26T22:52:57.358Z,101846.84
2018-09-26T22:55:25.900Z,101842.98
2018-09-26T22:57:54.706Z,101846.84
2018-09-26T23:00:23.459Z,101848.97
2018-09-26T23:02:52.056Z,101852.38
2018-09-26T23:05:20.755Z,101837.75
2018-09-26T23:07:49.357Z,101843.73
2018-09-26T23:10:17.986Z,101849.30
2018-09-26T23:12:46.913Z,101842.39
2018-09-26T23:15:15.610Z,101842.78
2018-09-26T23:17:44.193Z,101838.97
2018-09-26T23:20:12.978Z,101835.11
2018-09-26T23:22:41.758Z,101840.20
2018-09-26T23:25:10.637Z,101833.75
2018-09-26T23:27:39.145Z,101845.30
2018-09-26T23:30:07.655Z,101843.95
2018-09-26T23:32:36.303Z,101841.30
2018-09-26T23:35:05.009Z,101834.84
2018-09-26T23:37:33.676Z,101822.31
2018-09-26T23:40:02.551Z,101820.13
2018-09-26T23:42:31.770Z,101815.80
2018-09-26T23:45:00.345Z,101811.11
2018-09-26T23:47:28.989Z,101807.21
2018-09-26T23:49:57.508Z,101812.76
2018-09-26T23:52:26.211Z,101819.58
2018-09-26T23:54:54.877Z,101822.10
2018-09-26T23:57:23.398Z,101821.63
2018-09-26T23:59:52.867Z,101812.22
